Weather reports worldwide

Advertisment
Cairngorm, United Kingdom (3065): temperature & dewpoint: 20.04.2018 23:00:00 - 26.04.2018 23:00:00 (BST)Cairngorm, United Kingdom (3065): wind speed & gusts: 20.04.2018 23:00:00 - 26.04.2018 23:00:00 (BST)Cairngorm, United Kingdom (3065): wind direction: 20.04.2018 23:00:00 - 26.04.2018 23:00:00 (BST)
Date & Time tt [°C] td [°C] ff [km/h] ff [kn] fx [km/h] fx [kn] dd
26.04.2018 23:00:00 -1,9 -1,9 48 26 61 33 W
26.04.2018 22:00:00 -1,2 -1,2 50 27 65 35 W
26.04.2018 21:00:00 -1,8 -1,8 55 30 68 37 W
26.04.2018 20:00:00 -1,6 -1,6 52 28 72 39 W
26.04.2018 19:00:00 -1,2 -1,2 57 31 80 43 W
26.04.2018 18:00:00 -1,1 -1,1 57 31 80 43 W
26.04.2018 17:00:00 -1,4 -1,4 65 35 106 57 W
26.04.2018 16:00:00 -0,7 -0,8 65 35 89 48 W
26.04.2018 15:00:00 -0,7 -0,7 65 35 89 48 W
26.04.2018 14:00:00 -0,8 -1,1 72 39 - - W
26.04.2018 13:00:00 -1,0 -1,0 63 34 89 48 W
26.04.2018 12:00:00 -1,1 -1,2 63 34 89 48 W
26.04.2018 11:00:00 -1,6 -1,7 67 36 89 48 W
26.04.2018 10:00:00 -1,9 -2,1 72 39 94 51 W
26.04.2018 09:00:00 -1,9 -1,9 63 34 98 53 W
26.04.2018 08:00:00 -2,6 -2,6 61 33 89 48 W
26.04.2018 07:00:00 -2,3 -2,3 63 34 87 47 W
26.04.2018 06:00:00 -2,6 -2,6 65 35 81 44 W
26.04.2018 05:00:00 -2,1 -2,1 52 28 78 42 W
26.04.2018 04:00:00 -2,0 -2,0 57 31 80 43 W
26.04.2018 03:00:00 -2,1 -2,1 50 27 80 43 W
26.04.2018 02:00:00 -2,2 -2,2 59 32 87 47 WSW
26.04.2018 01:00:00 -2,3 -3,0 63 34 85 46 WSW
26.04.2018 00:00:00 -2,5 -2,5 54 29 80 43 WSW
25.04.2018 23:00:00 -2,5 -2,5 61 33 83 45 WSW
25.04.2018 22:00:00 -2,3 -2,3 48 26 78 42 W
25.04.2018 21:00:00 -1,9 -1,9 57 31 80 43 W
25.04.2018 20:00:00 -2,3 -2,4 52 28 74 40 W
25.04.2018 19:00:00 -1,4 -1,5 52 28 72 39 W
25.04.2018 18:00:00 -0,9 -0,9 42 23 72 39 W
25.04.2018 17:00:00 -1,8 -2,2 46 25 70 38 W
25.04.2018 16:00:00 -0,8 -0,9 46 25 72 39 W
25.04.2018 15:00:00 -1,1 -1,6 46 25 70 38 W
25.04.2018 14:00:00 -0,8 -0,9 37 20 63 34 WSW
25.04.2018 13:00:00 0,2 0,2 42 23 72 39 WSW
25.04.2018 12:00:00 0,1 0,0 54 29 78 42 WSW
25.04.2018 11:00:00 -1,1 -1,4 57 31 78 42 WSW
25.04.2018 10:00:00 -1,5 -1,6 52 28 68 37 WSW
25.04.2018 09:00:00 -1,3 -1,6 48 26 70 38 WSW
25.04.2018 08:00:00 -1,6 -1,6 42 23 68 37 WSW
25.04.2018 07:00:00 -1,8 -1,8 54 29 70 38 WSW
25.04.2018 06:00:00 -1,9 -1,9 48 26 59 32 WSW
25.04.2018 05:00:00 -2,1 -2,1 37 20 57 31 W
25.04.2018 04:00:00 -2,2 -2,2 41 22 59 32 W
25.04.2018 03:00:00 -1,8 -1,8 39 21 55 30 W
25.04.2018 02:00:00 -1,9 -1,9 39 21 54 29 W
25.04.2018 01:00:00 -1,5 -1,5 41 22 65 35 W
25.04.2018 00:00:00 -1,8 -1,8 50 27 68 37 W
24.04.2018 23:00:00 -1,9 -1,9 44 24 54 29 W
24.04.2018 22:00:00 -1,6 -1,6 46 25 59 32 W
24.04.2018 21:00:00 -1,1 -1,1 42 23 48 26 W
24.04.2018 20:00:00 -0,3 -0,3 37 20 55 30 W
24.04.2018 19:00:00 -0,3 -0,3 37 20 61 33 W
24.04.2018 18:00:00 -0,3 -0,3 46 25 59 32 W
24.04.2018 17:00:00 0,2 0,2 35 19 57 31 W
24.04.2018 16:00:00 1,2 1,2 35 19 57 31 W
24.04.2018 15:00:00 0,8 0,8 46 25 61 33 WSW
24.04.2018 14:00:00 0,7 0,7 52 28 68 37 W
24.04.2018 13:00:00 -0,4 -0,4 57 31 81 44 W
24.04.2018 12:00:00 -1,0 -1,0 61 33 98 53 W
24.04.2018 11:00:00 -1,3 -1,3 74 40 104 56 W
24.04.2018 10:00:00 -1,6 -1,6 80 43 102 55 W
24.04.2018 09:00:00 -0,5 -0,5 76 41 100 54 W
24.04.2018 08:00:00 -1,4 -1,4 65 35 104 56 W
24.04.2018 07:00:00 -1,4 -1,4 68 37 117 63 W
24.04.2018 06:00:00 -1,4 -1,4 87 47 117 63 W
24.04.2018 05:00:00 -1,5 -1,5 87 47 133 72 W
24.04.2018 04:00:00 -1,2 -1,2 76 41 117 63 W
24.04.2018 03:00:00 -1,5 -1,5 80 43 115 62 W
24.04.2018 02:00:00 -0,8 -0,8 78 42 124 67 W
24.04.2018 01:00:00 -0,9 -0,9 89 48 128 69 W
24.04.2018 00:00:00 1,2 1,2 91 49 120 65 W
23.04.2018 23:00:00 1,8 1,8 87 47 122 66 W
23.04.2018 22:00:00 2,7 2,7 74 40 102 55 WSW
23.04.2018 21:00:00 1,5 1,5 54 29 76 41 SSW
23.04.2018 20:00:00 1,0 1,0 52 28 72 39 SSW
23.04.2018 19:00:00 0,6 0,6 54 29 76 41 SSW
23.04.2018 18:00:00 0,3 0,3 54 29 74 40 SSW
23.04.2018 17:00:00 0,3 0,3 41 22 74 40 SW
23.04.2018 16:00:00 0,7 0,7 54 29 91 49 WSW
23.04.2018 15:00:00 0,2 0,2 54 29 72 39 W
23.04.2018 14:00:00 0,4 0,4 44 24 81 44 W
23.04.2018 13:00:00 0,1 0,1 59 32 93 50 W
23.04.2018 12:00:00 0,1 0,1 65 35 87 47 W
23.04.2018 11:00:00 0,1 0,1 55 30 81 44 W
23.04.2018 10:00:00 0,1 0,1 61 33 87 47 W
23.04.2018 09:00:00 0,2 0,2 70 38 93 50 W
23.04.2018 08:00:00 0,4 0,4 72 39 98 53 W
23.04.2018 07:00:00 0,5 0,5 72 39 102 55 W
23.04.2018 06:00:00 0,3 0,3 76 41 106 57 W
23.04.2018 05:00:00 0,3 0,3 81 44 109 59 W
23.04.2018 04:00:00 0,2 0,2 85 46 111 60 W
23.04.2018 03:00:00 0,3 0,3 76 41 113 61 W
23.04.2018 02:00:00 0,3 0,3 59 32 100 54 W
23.04.2018 01:00:00 0,3 0,3 67 36 102 55 WSW
23.04.2018 00:00:00 0,5 0,5 63 34 89 48 WSW
22.04.2018 23:00:00 0,8 0,8 61 33 96 52 SW
22.04.2018 22:00:00 0,6 0,6 59 32 85 46 SW
22.04.2018 21:00:00 0,3 0,3 52 28 91 49 SW
22.04.2018 20:00:00 0,2 0,2 61 33 87 47 SW
22.04.2018 19:00:00 0,4 0,1 54 29 87 47 WSW
22.04.2018 18:00:00 0,7 -0,6 59 32 81 44 WSW
22.04.2018 17:00:00 0,4 0,4 50 27 74 40 W
22.04.2018 16:00:00 0,9 0,9 42 23 70 38 WSW
22.04.2018 15:00:00 1,2 1,2 54 29 74 40 SW
22.04.2018 14:00:00 1,3 1,3 55 30 74 40 SSW
22.04.2018 13:00:00 1,4 1,4 54 29 72 39 SSW
22.04.2018 12:00:00 1,4 1,4 54 29 76 41 S
22.04.2018 11:00:00 1,7 1,4 63 34 81 44 S
22.04.2018 10:00:00 2,9 -0,5 46 25 59 32 SSW
22.04.2018 09:00:00 3,3 -0,7 44 24 68 37 SSW
22.04.2018 08:00:00 3,6 -1,1 55 30 - - SSW
22.04.2018 07:00:00 4,0 1,3 80 43 100 54 S
22.04.2018 06:00:00 4,0 4,0 83 45 109 59 S
22.04.2018 05:00:00 5,0 5,0 87 47 107 58 S
22.04.2018 04:00:00 4,9 4,5 81 44 100 54 S
22.04.2018 03:00:00 5,5 4,2 72 39 96 52 S
22.04.2018 02:00:00 4,7 1,3 70 38 93 50 SSE
22.04.2018 01:00:00 4,0 0,3 65 35 83 45 SSE
22.04.2018 00:00:00 4,0 0,0 67 36 85 46 SSE
21.04.2018 23:00:00 3,9 1,9 63 34 91 49 SSE
21.04.2018 22:00:00 3,2 1,7 61 33 85 46 SSE
21.04.2018 21:00:00 3,1 2,6 50 27 68 37 SSE
21.04.2018 20:00:00 4,3 1,6 44 24 78 42 SSE
21.04.2018 19:00:00 4,8 1,2 68 37 80 43 S
21.04.2018 18:00:00 4,8 0,5 57 31 72 39 S
21.04.2018 17:00:00 5,2 -0,2 59 32 78 42 S
21.04.2018 16:00:00 4,6 -0,6 67 36 85 46 S
21.04.2018 15:00:00 5,4 0,7 44 24 65 35 S
21.04.2018 14:00:00 4,4 -0,7 44 24 55 30 S
21.04.2018 13:00:00 3,6 -0,5 42 23 55 30 S
21.04.2018 12:00:00 2,0 -1,5 41 22 59 32 S
21.04.2018 11:00:00 2,0 -1,2 24 13 - - S
21.04.2018 10:00:00 1,0 -0,9 16 9 - - SSE
21.04.2018 09:00:00 1,2 -2,5 15 8 - - SW
21.04.2018 08:00:00 0,9 -2,8 21 11 - - WSW
21.04.2018 07:00:00 1,3 -4,5 16 9 - - WSW
21.04.2018 06:00:00 0,7 -2,4 21 11 - - W
21.04.2018 05:00:00 0,4 -1,5 16 9 - - W
21.04.2018 04:00:00 -1,1 -2,1 29 16 - - W
21.04.2018 03:00:00 -1,0 -1,0 18 10 - - W
21.04.2018 02:00:00 -0,9 -0,9 34 18 54 29 W
21.04.2018 01:00:00 -0,9 -0,9 35 19 50 27 W
21.04.2018 00:00:00 -1,2 -1,2 31 17 52 28 W
20.04.2018 23:00:00 -1,0 -1,0 44 24 72 39 W

tt = temperature
td = dewpoint
ff = wind speed
fx = gusts
dd = wind direction

Next stations